Time;durP1;ratioP1;P1;durP2;ratioP2;P2;SDS_P1;SDS_P2;PMS_P1;PMS_P2;Temp;Humidity;BMP_temperature;BMP_pressure;BME280_temperature;BME280_humidity;BME280_pressure;Samples;Min_cycle;Max_cycle;Signal;HPM_P1;HPM_P2
2022/10/03 00:00:26;;;;;;;2.40;1.70;;;;;;;-141.28;100.00;48597.53;5070972;28;20724;-74
2022/10/03 00:03:18;;;;;;;4.90;3.00;;;;;;;-141.28;100.00;48599.47;5073941;28;20213;-73
2022/10/03 00:05:58;;;;;;;5.90;2.00;;;;;;;-141.28;100.00;48583.78;5074161;28;20626;-73
2022/10/03 00:08:53;;;;;;;6.07;2.10;;;;;;;-141.28;100.00;48599.47;5074140;28;20252;-74
2022/10/03 00:11:31;;;;;;;2.47;2.27;;;;;;;-141.28;100.00;48587.72;5044058;28;20678;-74
2022/10/03 00:14:02;;;;;;;3.03;2.30;;;;;;;-141.28;100.00;48552.41;5071969;28;20192;-75
2022/10/03 00:16:43;;;;;;;5.03;2.40;;;;;;;-141.28;100.00;48552.41;5075398;28;20329;-73
2022/10/03 00:19:20;;;;;;;6.20;3.47;;;;;;;-141.28;100.00;48548.47;5074196;28;20238;-74
2022/10/03 00:22:00;;;;;;;8.57;3.50;;;;;;;-141.28;100.00;48558.28;5072886;28;20257;-74
2022/10/03 00:24:43;;;;;;;5.47;2.90;;;;;;;-141.28;100.00;48564.16;5072961;28;20255;-75
2022/10/03 00:27:16;;;;;;;3.37;2.20;;;;;;;-141.28;100.00;48540.63;5073489;28;20200;-74
2022/10/03 00:30:02;;;;;;;10.63;2.27;;;;;;;-141.28;100.00;48536.69;5073679;28;20220;-74
2022/10/03 00:32:42;;;;;;;12.67;3.60;;;;;;;-141.28;100.00;48507.28;5053617;28;20287;-75
2022/10/03 00:35:23;;;;;;;5.17;2.90;;;;;;;-141.28;100.00;48521.00;5073486;28;20196;-74
2022/10/03 00:38:08;;;;;;;4.33;3.03;;;;;;;-141.28;100.00;48513.16;5073256;28;20263;-74
2022/10/03 00:41:13;;;;;;;5.07;2.90;;;;;;;-141.28;100.00;48522.97;5073302;28;20604;-75
2022/10/03 00:44:30;;;;;;;5.30;3.40;;;;;;;-141.28;100.00;48538.66;5073000;28;20269;-74
2022/10/03 00:47:39;;;;;;;5.73;3.07;;;;;;;-141.28;100.00;48477.84;5069103;28;20646;-76
2022/10/03 00:50:28;;;;;;;4.43;3.17;;;;;;;-141.28;100.00;48466.09;5072848;28;20204;-75
2022/10/03 00:53:17;;;;;;;6.70;3.23;;;;;;;-141.28;100.00;48397.41;5072777;28;20466;-74
2022/10/03 00:55:56;;;;;;;5.67;3.03;;;;;;;-141.28;100.00;48364.06;5059817;28;20216;-73
2022/10/03 00:58:38;;;;;;;5.30;3.30;;;;;;;-141.28;100.00;48348.38;5071491;28;20450;-73
2022/10/03 01:01:23;;;;;;;11.50;3.20;;;;;;;-141.28;100.00;48352.31;5072541;28;20211;-74
2022/10/03 01:03:59;;;;;;;7.07;3.20;;;;;;;-141.28;100.00;48336.63;5073264;28;20277;-72
2022/10/03 01:06:36;;;;;;;6.27;3.30;;;;;;;-141.28;100.00;48332.69;5072323;28;20203;-73
2022/10/03 01:09:21;;;;;;;4.10;3.13;;;;;;;-141.28;100.00;48344.47;5073162;28;20207;-73
2022/10/03 01:12:04;;;;;;;4.53;3.70;;;;;;;-141.28;100.00;48352.31;5072316;28;20275;-74
2022/10/03 01:14:52;;;;;;;8.57;3.70;;;;;;;-141.28;100.00;48350.34;5060305;28;20522;-74
2022/10/03 01:17:28;;;;;;;9.40;4.60;;;;;;;-141.28;100.00;48348.38;5072890;28;20613;-73
2022/10/03 01:20:07;;;;;;;5.00;3.80;;;;;;;-141.28;100.00;48346.41;5072701;28;20200;-72
2022/10/03 01:23:07;;;;;;;5.27;3.90;;;;;;;-141.28;100.00;48344.47;5072081;28;20342;-72
2022/10/03 01:25:42;;;;;;;7.17;4.23;;;;;;;-141.28;100.00;48344.47;5072774;28;20796;-72
2022/10/03 01:31:28;;;;;;;8.57;3.83;;;;;;;-141.28;100.00;48356.22;5064566;28;20200;-72
2022/10/03 01:34:03;;;;;;;9.00;4.53;;;;;;;-141.28;100.00;48320.91;5072341;28;20450;-73
2022/10/03 01:36:39;;;;;;;7.60;4.00;;;;;;;-141.28;100.00;48342.50;5072241;28;20199;-73
2022/10/03 01:39:15;;;;;;;4.23;3.47;;;;;;;-141.28;100.00;48344.47;5072854;28;20537;-75
2022/10/03 01:41:50;;;;;;;6.13;3.10;;;;;;;-141.28;100.00;48354.28;5073227;28;20192;-72
2022/10/03 01:44:24;;;;;;;5.80;2.70;;;;;;;-141.28;100.00;48360.16;5054388;28;20231;-73
2022/10/03 01:46:58;;;;;;;10.23;3.20;;;;;;;-141.28;100.00;48379.78;5072215;28;20196;-74
2022/10/03 01:49:33;;;;;;;9.57;3.70;;;;;;;-141.28;100.00;48362.13;5072070;28;20196;-73
2022/10/03 01:52:04;;;;;;;16.23;4.17;;;;;;;-141.28;100.00;48391.53;5072634;28;20233;-73
2022/10/03 01:54:41;;;;;;;11.17;3.20;;;;;;;-141.28;100.00;48397.41;5071757;28;20299;-75
2022/10/03 01:57:18;;;;;;;9.70;2.70;;;;;;;-141.28;100.00;48415.06;5072060;28;20196;-75
2022/10/03 01:59:58;;;;;;;3.90;2.27;;;;;;;-141.28;100.00;48434.69;5070977;28;20188;-73
2022/10/03 02:02:31;;;;;;;3.93;2.40;;;;;;;-141.28;100.00;48438.63;5053917;28;20732;-72
2022/10/03 02:05:06;;;;;;;8.67;2.40;;;;;;;-141.28;100.00;48458.22;5072020;28;20664;-73
2022/10/03 02:07:41;;;;;;;8.43;2.30;;;;;;;-141.28;100.00;48470.00;5071116;28;20203;-73
2022/10/03 02:10:20;;;;;;;7.60;2.30;;;;;;;-141.28;100.00;48485.69;5054107;28;20298;-73
2022/10/03 02:12:56;;;;;;;3.87;1.97;;;;;;;-141.28;100.00;48491.59;5071481;28;20732;-74
2022/10/03 02:15:31;;;;;;;6.77;2.50;;;;;;;-141.28;100.00;48509.25;5071914;28;20578;-74
2022/10/03 02:18:11;;;;;;;8.10;2.23;;;;;;;-141.28;100.00;48509.25;5071313;28;20253;-74
2022/10/03 02:20:45;;;;;;;5.20;2.50;;;;;;;-141.28;100.00;48521.00;5071347;28;20199;-75
2022/10/03 02:23:24;;;;;;;5.70;2.50;;;;;;;-141.28;100.00;48513.16;5072793;28;20260;-73
2022/10/03 02:26:06;;;;;;;6.60;2.83;;;;;;;-141.28;100.00;48507.28;5072124;28;20192;-73
2022/10/03 02:29:00;;;;;;;6.67;2.77;;;;;;;-141.28;100.00;48526.91;5070888;28;20198;-74
2022/10/03 02:31:50;;;;;;;6.73;3.13;;;;;;;-141.28;100.00;48505.31;5070869;28;20196;-73
2022/10/03 02:34:32;;;;;;;4.70;3.50;;;;;;;-141.28;100.00;48485.69;5060304;28;20200;-72
2022/10/03 02:37:45;;;;;;;12.03;4.30;;;;;;;-141.28;100.00;48497.47;5071041;28;20196;-74
2022/10/03 02:41:06;;;;;;;5.67;3.70;;;;;;;-141.28;100.00;48483.75;5032275;28;20207;-73
2022/10/03 02:44:12;;;;;;;4.33;3.20;;;;;;;-141.28;100.00;48468.03;5023462;28;20514;-74
2022/10/03 02:47:10;;;;;;;7.10;2.90;;;;;;;-141.28;100.00;48438.63;5071059;28;20516;-72
2022/10/03 02:50:04;;;;;;;4.37;2.90;;;;;;;-141.28;100.00;48417.03;5070624;28;20439;-73
2022/10/03 02:53:03;;;;;;;6.03;3.27;;;;;;;-141.28;100.00;48420.97;5067867;28;20193;-75
2022/10/03 02:55:56;;;;;;;10.63;3.07;;;;;;;-141.28;100.00;48422.94;5071128;28;20208;-73
2022/10/03 02:58:55;;;;;;;9.70;3.53;;;;;;;-141.28;100.00;48419.00;5056686;28;20496;-75
2022/10/03 03:01:55;;;;;;;11.30;3.33;;;;;;;-141.28;100.00;48426.84;5070939;28;20438;-74
2022/10/03 03:05:07;;;;;;;11.13;3.80;;;;;;;-141.28;100.00;48411.16;5063474;28;21028;-74
2022/10/03 03:07:57;;;;;;;9.70;4.50;;;;;;;-141.28;100.00;48395.47;5070643;28;20262;-74
2022/10/03 03:10:43;;;;;;;12.97;4.07;;;;;;;-141.28;100.00;48401.34;5070380;28;20676;-75
2022/10/03 03:14:02;;;;;;;9.30;4.50;;;;;;;-141.28;100.00;48395.47;5054645;28;20670;-75
2022/10/03 03:17:03;;;;;;;9.53;4.40;;;;;;;-141.28;100.00;48426.84;5007888;28;20280;-72
2022/10/03 03:20:02;;;;;;;9.90;4.67;;;;;;;-141.28;100.00;48381.72;5006983;28;20229;-73
2022/10/03 03:22:45;;;;;;;9.63;4.83;;;;;;;-141.28;100.00;48383.69;5059333;28;20203;-73
2022/10/03 03:25:27;;;;;;;9.60;4.70;;;;;;;-141.28;100.00;48385.66;5070635;28;20310;-73
2022/10/03 03:28:06;;;;;;;6.63;4.20;;;;;;;-141.28;100.00;48403.31;5071102;28;20197;-75
2022/10/03 03:30:40;;;;;;;10.43;5.43;;;;;;;-141.28;100.00;48403.31;5070444;28;20834;-74
2022/10/03 03:33:29;;;;;;;11.43;4.77;;;;;;;-141.28;100.00;48409.19;5066801;28;20700;-74
2022/10/03 03:36:05;;;;;;;15.33;5.13;;;;;;;-141.28;100.00;48422.94;5073576;28;20952;-76
2022/10/03 03:38:41;;;;;;;10.73;5.93;;;;;;;-141.28;100.00;48422.94;5066584;28;20454;-73
2022/10/03 03:41:31;;;;;;;11.47;5.53;;;;;;;-141.28;100.00;48434.69;5074347;28;20865;-73
2022/10/03 03:44:34;;;;;;;11.53;6.90;;;;;;;-141.28;100.00;48440.56;5074709;28;20219;-76
2022/10/03 03:47:26;;;;;;;8.90;5.40;;;;;;;-141.28;100.00;48440.56;5041291;28;20294;-73
2022/10/03 03:50:13;;;;;;;12.53;4.93;;;;;;;-141.28;100.00;48420.97;5074424;28;20228;-75
2022/10/03 03:52:59;;;;;;;8.90;5.13;;;;;;;-141.28;100.00;48420.97;5074182;28;20635;-75
2022/10/03 03:55:47;;;;;;;11.70;5.50;;;;;;;-141.28;100.00;48409.19;5074039;28;20670;-73
2022/10/03 03:58:32;;;;;;;14.80;5.97;;;;;;;-141.28;100.00;48422.94;5068946;28;20228;-73
2022/10/03 04:01:36;;;;;;;17.27;5.47;;;;;;;-141.28;100.00;48422.94;5056252;28;20210;-75
2022/10/03 04:04:16;;;;;;;13.23;5.47;;;;;;;-141.28;100.00;48387.63;5073819;28;20647;-73
2022/10/03 04:06:56;;;;;;;20.57;6.00;;;;;;;-141.28;100.00;48415.06;5074264;28;20295;-74
2022/10/03 04:09:44;;;;;;;20.40;7.00;;;;;;;-141.28;100.00;48430.78;5073956;28;20192;-73
2022/10/03 04:12:28;;;;;;;15.60;5.90;;;;;;;-141.28;100.00;48426.84;5072393;28;20343;-75
2022/10/03 04:15:14;;;;;;;14.73;5.90;;;;;;;-141.28;100.00;48424.88;5073758;28;20654;-72
2022/10/03 04:21:01;;;;;;;8.60;5.20;;;;;;;-141.28;100.00;48444.50;5074115;28;20401;-76
2022/10/03 04:23:51;;;;;;;8.77;5.00;;;;;;;-141.28;100.00;48426.84;5073621;28;20208;-73
2022/10/03 04:26:32;;;;;;;23.37;5.73;;;;;;;-141.28;100.00;48428.81;5067452;28;20574;-73
2022/10/03 04:29:30;;;;;;;11.77;4.83;;;;;;;-141.28;100.00;48450.38;5073824;28;20208;-73
2022/10/03 04:32:09;;;;;;;18.33;6.30;;;;;;;-141.28;100.00;48434.69;5077688;28;20667;-73
2022/10/03 04:34:55;;;;;;;16.20;6.20;;;;;;;-141.28;100.00;48430.78;5073776;28;20212;-74
2022/10/03 04:37:32;;;;;;;10.07;4.73;;;;;;;-141.28;100.00;48446.47;5073292;28;20196;-73
2022/10/03 04:40:23;;;;;;;10.33;4.77;;;;;;;-141.28;100.00;48454.31;5073697;28;20636;-76
2022/10/03 04:43:04;;;;;;;11.77;5.50;;;;;;;-141.28;100.00;48448.44;5073346;28;20196;-73
2022/10/03 04:45:54;;;;;;;11.97;5.27;;;;;;;-141.28;100.00;48454.31;5067396;28;20231;-75
2022/10/03 04:48:31;;;;;;;10.20;6.90;;;;;;;-141.28;100.00;48442.53;5072408;28;20227;-75
2022/10/03 04:51:07;;;;;;;10.30;7.43;;;;;;;-141.28;100.00;48454.31;5073407;28;20208;-73
2022/10/03 04:53:50;;;;;;;15.83;8.80;;;;;;;-141.28;100.00;48452.34;5072460;28;20200;-75
2022/10/03 04:56:34;;;;;;;12.83;8.07;;;;;;;-141.28;100.00;48462.16;5069859;28;20255;-75
2022/10/03 04:59:11;;;;;;;13.13;7.30;;;;;;;-141.28;100.00;48458.22;5073876;28;20204;-74
2022/10/03 05:01:50;;;;;;;14.00;7.07;;;;;;;-141.28;100.00;48466.09;5073279;28;20200;-77
2022/10/03 05:04:27;;;;;;;18.67;7.67;;;;;;;-141.28;100.00;48473.94;5073259;28;20254;-75
2022/10/03 05:07:01;;;;;;;8.53;6.70;;;;;;;-141.28;100.00;48489.63;5067278;28;20199;-75
2022/10/03 05:09:41;;;;;;;12.43;6.90;;;;;;;-141.28;100.00;48473.94;5072811;28;20192;-74
2022/10/03 05:12:16;;;;;;;9.27;6.30;;;;;;;-141.28;100.00;48505.31;5071452;28;20251;-75
2022/10/03 05:15:13;;;;;;;18.47;6.00;;;;;;;-141.28;100.00;48513.16;5072403;28;20244;-74
2022/10/03 05:17:48;;;;;;;15.63;6.20;;;;;;;-141.28;100.00;48513.16;5058584;28;20204;-74
2022/10/03 05:20:37;;;;;;;9.97;6.40;;;;;;;-141.28;100.00;48505.31;5051491;28;20204;-75
2022/10/03 05:23:19;;;;;;;8.80;5.70;;;;;;;-141.28;100.00;48517.09;5070550;28;20196;-75
2022/10/03 05:25:54;;;;;;;18.63;6.67;;;;;;;-141.28;100.00;48524.94;5070132;28;20216;-74
2022/10/03 05:28:35;;;;;;;8.97;5.37;;;;;;;-141.28;100.00;48532.78;5070784;28;20196;-72
2022/10/03 05:31:06;;;;;;;13.53;5.60;;;;;;;-141.28;100.00;48532.78;5071878;28;20240;-75
2022/10/03 05:33:46;;;;;;;10.03;5.03;;;;;;;-141.28;100.00;48534.75;5072096;28;20462;-74
2022/10/03 05:36:26;;;;;;;16.23;5.87;;;;;;;-141.28;100.00;48550.44;5072645;28;20231;-75
2022/10/03 05:39:27;;;;;;;11.63;5.47;;;;;;;-141.28;100.00;48568.09;5072097;28;20192;-71
2022/10/03 05:42:00;;;;;;;10.47;5.67;;;;;;;-141.28;100.00;48554.34;5072015;28;20188;-73
2022/10/03 05:44:42;;;;;;;8.80;5.43;;;;;;;-141.28;100.00;48570.06;5072591;28;20288;-74
2022/10/03 05:50:13;;;;;;;14.57;6.40;;;;;;;-141.28;100.00;48579.88;5071655;28;20192;-73
2022/10/03 05:52:58;;;;;;;13.10;6.70;;;;;;;-141.28;100.00;48570.06;5072168;28;20269;-75
2022/10/03 05:55:36;;;;;;;19.43;7.07;;;;;;;-141.28;100.00;48556.31;5067593;28;20714;-75
2022/10/03 05:58:39;;;;;;;18.53;5.70;;;;;;;-141.28;100.00;48568.09;5071018;28;20203;-75
2022/10/03 06:01:24;;;;;;;16.13;5.73;;;;;;;-141.28;100.00;48556.31;5071469;28;20192;-75
2022/10/03 06:04:38;;;;;;;21.70;5.60;;;;;;;-141.28;100.00;48564.16;5071552;28;20720;-75
2022/10/03 06:07:21;;;;;;;12.77;5.83;;;;;;;-141.28;100.00;48583.78;5071351;28;20200;-75
2022/10/03 06:10:24;;;;;;;15.57;7.70;;;;;;;-141.28;100.00;48548.47;5071907;28;20200;-74
2022/10/03 06:13:06;;;;;;;17.37;8.00;;;;;;;-141.28;100.00;48585.75;5064116;28;20226;-73
2022/10/03 06:15:45;;;;;;;25.50;8.30;;;;;;;-141.28;100.00;48579.88;5058490;28;20253;-76
2022/10/03 06:18:45;;;;;;;23.87;7.50;;;;;;;-141.28;100.00;48570.06;5068931;28;20602;-72
2022/10/03 06:21:39;;;;;;;15.67;7.23;;;;;;;-141.28;100.00;48619.09;5069403;28;20672;-75
2022/10/03 06:24:55;;;;;;;20.50;7.47;;;;;;;-141.28;100.00;48630.88;5069411;28;20207;-75
2022/10/03 06:28:01;;;;;;;17.60;8.13;;;;;;;-141.28;100.00;48677.94;5070681;28;20669;-71
2022/10/03 06:30:50;;;;;;;16.97;9.00;;;;;;;-141.28;100.00;48658.34;5070850;28;20618;-72
2022/10/03 06:33:51;;;;;;;17.83;8.10;;;;;;;-141.28;100.00;48656.38;5070982;28;20202;-73
2022/10/03 06:37:05;;;;;;;12.70;7.03;;;;;;;-141.28;100.00;48670.09;5073786;28;20199;-74
2022/10/03 06:40:19;;;;;;;13.27;6.67;;;;;;;-141.28;100.00;48717.19;5025006;28;20636;-75
2022/10/03 06:43:11;;;;;;;19.27;7.50;;;;;;;-141.28;100.00;48748.56;5066848;28;20636;-74
2022/10/03 06:46:17;;;;;;;20.00;7.47;;;;;;;-141.28;100.00;48679.91;5060495;28;20236;-74
2022/10/03 06:49:22;;;;;;;17.90;6.57;;;;;;;-141.28;100.00;48672.06;5065062;28;20253;-74
2022/10/03 06:52:16;;;;;;;15.83;6.37;;;;;;;-141.28;100.00;48662.25;5063438;28;20332;-74
2022/10/03 06:55:20;;;;;;;15.93;6.20;;;;;;;-141.28;100.00;48666.19;5068591;28;20328;-76
2022/10/03 06:58:24;;;;;;;14.53;6.10;;;;;;;-141.28;100.00;48711.31;5073339;28;20204;-74
2022/10/03 07:01:08;;;;;;;11.23;6.23;;;;;;;-141.28;100.00;48697.56;5074298;28;20196;-73
2022/10/03 07:04:23;;;;;;;9.80;5.40;;;;;;;-141.28;100.00;48713.25;5069482;28;20260;-73
2022/10/03 07:07:15;;;;;;;11.93;6.57;;;;;;;-141.28;100.00;48728.97;5070217;28;20275;-74
2022/10/03 07:10:21;;;;;;;13.20;6.57;;;;;;;-141.28;100.00;48709.34;5066509;28;20211;-73
2022/10/03 07:13:12;;;;;;;10.53;5.23;;;;;;;-141.28;100.00;48728.97;5070160;28;20227;-75
2022/10/03 07:16:11;;;;;;;10.23;5.53;;;;;;;-141.28;100.00;48658.34;5070195;28;20624;-75
2022/10/03 07:19:15;;;;;;;10.07;5.00;;;;;;;-141.28;100.00;48648.53;5069012;28;20607;-75
2022/10/03 07:22:17;;;;;;;9.93;5.00;;;;;;;-141.28;100.00;48630.88;5066445;28;20208;-75
2022/10/03 07:25:18;;;;;;;12.57;4.90;;;;;;;-141.28;100.00;48599.47;5033062;28;20706;-76
2022/10/03 07:28:01;;;;;;;9.70;5.00;;;;;;;-141.28;100.00;48558.28;5070568;28;20224;-74
2022/10/03 07:30:36;;;;;;;14.50;5.30;;;;;;;-141.28;100.00;48460.19;5067542;28;20207;-74
2022/10/03 07:33:47;;;;;;;9.27;5.20;;;;;;;-141.28;100.00;48485.69;5069924;28;20206;-72
2022/10/03 07:39:51;;;;;;;10.50;6.43;;;;;;;-141.28;100.00;48438.63;5069111;28;20643;-76
2022/10/03 07:42:54;;;;;;;9.27;6.60;;;;;;;-141.28;100.00;48428.81;5065783;28;20253;-77
2022/10/03 07:45:42;;;;;;;10.53;6.37;;;;;;;-141.28;100.00;48403.31;5069796;28;20223;-75
2022/10/03 07:48:50;;;;;;;13.00;7.00;;;;;;;-141.28;100.00;48379.78;5069845;28;20204;-77
2022/10/03 07:51:25;;;;;;;14.10;7.47;;;;;;;-141.28;100.00;48320.91;5065164;28;20196;-76
2022/10/03 07:54:20;;;;;;;15.20;7.20;;;;;;;-141.28;100.00;48322.88;5069709;28;20265;-75
2022/10/03 07:57:20;;;;;;;13.40;6.53;;;;;;;-141.28;100.00;48322.88;5057117;28;20200;-77
2022/10/03 08:00:23;;;;;;;10.27;7.20;;;;;;;-141.28;100.00;48364.06;5069832;28;20203;-73
2022/10/03 08:03:50;;;;;;;19.90;9.77;;;;;;;-141.28;100.00;48348.38;5065308;28;20564;-74
2022/10/03 08:06:23;;;;;;;14.23;6.67;;;;;;;-141.28;100.00;48342.50;5059604;28;20220;-72
2022/10/03 08:09:27;;;;;;;16.40;7.47;;;;;;;-141.28;100.00;48324.84;5069006;28;20276;-75
2022/10/03 08:12:15;;;;;;;15.33;7.47;;;;;;;-141.28;100.00;48324.84;5069084;28;20207;-74
2022/10/03 08:14:56;;;;;;;9.23;6.90;;;;;;;-141.28;100.00;48320.91;5068491;28;20215;-74
2022/10/03 08:17:51;;;;;;;18.40;6.93;;;;;;;-141.28;100.00;48328.75;5068214;28;20204;-75
2022/10/03 08:20:54;;;;;;;12.90;7.90;;;;;;;-141.28;100.00;48340.53;5020584;28;20260;-75
2022/10/03 08:23:59;;;;;;;16.50;6.57;;;;;;;-141.28;100.00;48346.41;5033871;28;20648;-74
2022/10/03 08:26:41;;;;;;;13.70;8.07;;;;;;;-141.28;100.00;48336.63;5033649;28;20712;-74
2022/10/03 08:29:22;;;;;;;17.67;8.10;;;;;;;-141.28;100.00;48320.91;5020628;28;20316;-74
2022/10/03 08:32:33;;;;;;;15.10;8.03;;;;;;;-141.28;100.00;48350.34;5033709;28;20569;-75
2022/10/03 08:35:24;;;;;;;17.63;8.13;;;;;;;-141.28;100.00;48336.63;5023089;28;20208;-74
2022/10/03 08:38:19;;;;;;;14.13;6.87;;;;;;;-141.28;100.00;48342.50;5033891;28;20278;-74
2022/10/03 08:41:18;;;;;;;13.30;7.43;;;;;;;-141.28;100.00;48338.56;5023657;28;20220;-73
2022/10/03 08:44:27;;;;;;;11.27;6.17;;;;;;;-141.28;100.00;48352.31;5008658;28;20232;-77
2022/10/03 08:47:16;;;;;;;8.90;5.60;;;;;;;-141.28;100.00;48344.47;5028442;28;20618;-74
2022/10/03 08:50:13;;;;;;;11.23;5.63;;;;;;;-141.28;100.00;48336.63;5032986;28;20627;-76
2022/10/03 08:53:01;;;;;;;14.10;7.00;;;;;;;-141.28;100.00;48348.38;4990300;28;20213;-75
2022/10/03 08:55:44;;;;;;;17.33;6.50;;;;;;;-141.28;100.00;48360.16;5023435;28;20700;-75
2022/10/03 08:58:28;;;;;;;8.07;4.13;;;;;;;-141.28;100.00;48373.88;5048374;28;20209;-75
2022/10/03 09:01:17;;;;;;;7.30;3.13;;;;;;;-141.28;100.00;48401.34;5033412;28;20201;-73
2022/10/03 09:04:25;;;;;;;7.73;3.27;;;;;;;-141.28;100.00;48448.44;5032877;28;20204;-75
2022/10/03 09:07:23;;;;;;;7.73;2.80;;;;;;;-141.28;100.00;48532.78;5002928;28;20260;-76
2022/10/03 09:10:24;;;;;;;4.23;2.40;;;;;;;-141.28;100.00;48595.56;5033041;28;20232;-73
2022/10/03 09:13:14;;;;;;;6.17;2.30;;;;;;;-141.28;100.00;48634.78;5018219;28;20609;-73
2022/10/03 09:16:10;;;;;;;2.87;2.40;;;;;;;-141.28;100.00;48650.50;5026774;28;20193;-73
2022/10/03 09:19:04;;;;;;;3.47;2.50;;;;;;;-141.28;100.00;48728.97;5049866;28;20235;-76
2022/10/03 09:22:16;;;;;;;2.83;2.30;;;;;;;-141.28;100.00;48774.09;5065626;28;20200;-75
2022/10/03 09:25:11;;;;;;;3.43;2.40;;;;;;;-141.28;100.00;48893.75;5010650;28;20297;-74
2022/10/03 09:28:09;;;;;;;3.47;2.13;;;;;;;-141.28;100.00;48878.06;5058423;28;20200;-74
2022/10/03 09:30:52;;;;;;;2.33;2.10;;;;;;;-141.28;100.00;48897.69;5072583;28;20192;-76
2022/10/03 09:34:05;;;;;;;5.37;2.50;;;;;;;-141.28;100.00;48913.38;5071944;28;20226;-75
2022/10/03 09:37:05;;;;;;;4.30;2.47;;;;;;;-141.28;100.00;48999.72;5024672;28;20622;-74
2022/10/03 09:40:13;;;;;;;3.67;2.47;;;;;;;-141.28;100.00;48974.19;5072407;28;20201;-74
2022/10/03 09:43:07;;;;;;;3.43;2.33;;;;;;;-141.28;100.00;49031.09;5043836;28;20204;-72
2022/10/03 09:46:06;;;;;;;4.60;2.50;;;;;;;-141.28;100.00;49011.47;5061489;28;20220;-73
2022/10/03 09:48:54;;;;;;;3.30;2.70;;;;;;;-141.28;100.00;49058.56;5071802;28;20196;-76
2022/10/03 09:51:35;;;;;;;2.90;2.20;;;;;;;-141.28;100.00;49009.50;5072041;28;20262;-75
2022/10/03 09:54:37;;;;;;;6.73;2.37;;;;;;;-141.28;100.00;49066.41;5066458;28;20200;-75
2022/10/03 09:57:46;;;;;;;8.50;2.23;;;;;;;-141.28;100.00;49207.69;5072052;28;20199;-73
2022/10/03 10:00:26;;;;;;;4.73;2.30;;;;;;;-141.28;100.00;49235.16;5063979;28;20203;-74
2022/10/03 10:03:26;;;;;;;7.93;2.77;;;;;;;-141.28;100.00;49211.59;5059241;28;20282;-74
2022/10/03 10:06:26;;;;;;;7.00;2.73;;;;;;;-141.28;100.00;49266.56;5071438;28;20282;-74
2022/10/03 10:09:32;;;;;;;4.07;2.30;;;;;;;-141.28;100.00;49354.84;5071406;28;20192;-73
2022/10/03 10:12:47;;;;;;;5.90;2.40;;;;;;;-141.28;100.00;49451.00;5065313;28;20200;-76
2022/10/03 10:15:49;;;;;;;2.83;2.20;;;;;;;-141.28;100.00;49647.22;5071556;28;20206;-75
2022/10/03 10:18:55;;;;;;;3.77;1.80;;;;;;;-141.28;100.00;49710.03;5068873;28;20235;-74
2022/10/03 10:21:50;;;;;;;3.20;1.90;;;;;;;-141.28;100.00;49706.09;5068013;28;20253;-73
2022/10/03 10:24:46;;;;;;;1.93;1.83;;;;;;;-141.28;100.00;49753.19;5072067;28;20196;-74
2022/10/03 10:27:38;;;;;;;2.23;2.00;;;;;;;-141.28;100.00;49874.88;5071105;28;20690;-73
2022/10/03 10:30:22;;;;;;;2.40;2.20;;;;;;;-141.28;100.00;50063.28;5071261;28;20219;-73
2022/10/03 10:33:27;;;;;;;3.20;1.80;;;;;;;-141.28;100.00;50216.38;5071103;28;20563;-76
2022/10/03 10:36:43;;;;;;;4.83;2.10;;;;;;;-141.28;100.00;50447.97;5071350;28;20253;-74
2022/10/03 10:39:48;;;;;;;2.87;1.90;;;;;;;-141.28;100.00;50675.69;5071249;28;20226;-75
2022/10/03 10:43:11;;;;;;;1.63;1.53;;;;;;;-141.28;100.00;50868.06;5059448;28;20683;-74
2022/10/03 10:46:05;;;;;;;4.00;1.60;;;;;;;-141.28;100.00;51025.09;5064273;28;20219;-73
2022/10/03 10:49:04;;;;;;;1.80;1.70;;;;;;;-141.28;100.00;51023.16;5078349;28;20200;-75
2022/10/03 10:52:03;;;;;;;1.60;1.50;;;;;;;-141.28;100.00;51186.09;5071283;28;20204;-74
2022/10/03 10:55:03;;;;;;;1.60;1.50;;;;;;;-141.28;100.00;51352.97;5070919;28;20259;-76
2022/10/03 10:58:15;;;;;;;2.63;1.40;;;;;;;-141.28;100.00;51665.16;5071158;28;20203;-73
2022/10/03 11:01:16;;;;;;;2.13;1.43;;;;;;;-141.28;100.00;51855.63;5035228;28;20257;-73
2022/10/03 11:04:22;;;;;;;1.33;1.23;;;;;;;-141.28;100.00;52105.03;5062235;28;20701;-74
2022/10/03 11:07:30;;;;;;;1.10;1.10;;;;;;;-141.28;100.00;52326.94;5047872;28;20716;-73
2022/10/03 11:10:30;;;;;;;1.80;1.60;;;;;;;-141.28;100.00;52464.44;5071265;28;20607;-75
2022/10/03 11:13:30;;;;;;;1.67;1.57;;;;;;;-141.28;100.00;52658.88;5067751;28;20313;-76
2022/10/03 11:16:33;;;;;;;1.50;1.40;;;;;;;-141.28;100.00;52576.38;5070517;28;20261;-74
2022/10/03 11:19:53;;;;;;;2.70;1.73;;;;;;;-141.28;100.00;52513.53;5065397;28;20840;-75
2022/10/03 11:23:04;;;;;;;4.70;1.87;;;;;;;-141.28;100.00;52505.69;5070484;28;20196;-75
2022/10/03 11:26:21;;;;;;;1.60;1.50;;;;;;;-141.28;100.00;52505.69;5034286;28;20238;-73
2022/10/03 11:29:24;;;;;;;1.87;1.50;;;;;;;-141.28;100.00;52466.41;5070076;28;20196;-75
2022/10/03 11:32:24;;;;;;;1.67;1.50;;;;;;;-141.28;100.00;52464.44;5070452;28;20641;-75
2022/10/03 11:35:31;;;;;;;2.97;1.80;;;;;;;-141.28;100.00;52470.31;5067452;28;20197;-74
2022/10/03 11:38:07;;;;;;;4.60;2.10;;;;;;;-141.28;100.00;52376.06;5063190;28;20221;-75
2022/10/03 11:40:56;;;;;;;5.40;2.17;;;;;;;-141.28;100.00;52482.09;5052547;28;20212;-75
2022/10/03 11:43:50;;;;;;;2.50;2.20;;;;;;;-141.28;100.00;52352.47;5070396;28;20215;-73
2022/10/03 11:46:46;;;;;;;3.17;2.87;;;;;;;-141.28;100.00;52397.66;5069941;28;20234;-74
2022/10/03 11:49:31;;;;;;;2.87;2.63;;;;;;;-141.28;100.00;52297.50;5070081;28;20268;-73
2022/10/03 11:52:14;;;;;;;3.53;2.47;;;;;;;-141.28;100.00;52246.44;5057520;28;20655;-75
2022/10/03 11:54:47;;;;;;;5.43;3.00;;;;;;;-141.28;100.00;52364.25;5070011;28;20269;-75
2022/10/03 11:57:25;;;;;;;4.90;2.77;;;;;;;-141.28;100.00;52360.34;5073916;28;20211;-75
2022/10/03 12:00:01;;;;;;;3.17;2.87;;;;;;;-141.28;100.00;52319.09;5074587;28;20199;-74
2022/10/03 12:02:55;;;;;;;3.07;2.77;;;;;;;-141.28;100.00;52226.78;5074157;28;20196;-73
2022/10/03 12:05:35;;;;;;;4.40;3.00;;;;;;;-141.28;100.00;52218.94;5065950;28;20208;-74
2022/10/03 12:11:12;;;;;;;3.60;2.90;;;;;;;-141.28;100.00;52083.44;5074074;28;20202;-73
2022/10/03 12:13:48;;;;;;;3.77;3.20;;;;;;;-141.28;100.00;52140.38;5074046;28;20264;-75
2022/10/03 12:16:26;;;;;;;3.33;3.03;;;;;;;-141.28;100.00;52136.44;5061306;28;20206;-74
2022/10/03 12:18:58;;;;;;;3.33;3.03;;;;;;;-141.28;100.00;52220.91;5073433;28;20266;-74
2022/10/03 12:21:41;;;;;;;5.07;3.37;;;;;;;-141.28;100.00;52379.97;5073647;28;20196;-74
2022/10/03 12:24:29;;;;;;;4.20;3.20;;;;;;;-141.28;100.00;52493.88;5073716;28;20689;-74
2022/10/03 12:27:03;;;;;;;3.80;3.30;;;;;;;-141.28;100.00;52497.81;5073723;28;20224;-73
2022/10/03 12:29:36;;;;;;;3.97;2.97;;;;;;;-141.28;100.00;52427.13;5073897;28;20245;-73
2022/10/03 12:32:33;;;;;;;3.30;3.00;;;;;;;-141.28;100.00;52376.06;5073726;28;20601;-73
2022/10/03 12:35:21;;;;;;;6.50;2.93;;;;;;;-141.28;100.00;52277.84;5057082;28;20211;-73
2022/10/03 12:38:03;;;;;;;4.77;2.80;;;;;;;-141.28;100.00;52075.56;5073863;28;20299;-74
2022/10/03 12:40:35;;;;;;;5.23;2.40;;;;;;;-141.28;100.00;52034.34;5060535;28;20226;-75
2022/10/03 12:43:20;;;;;;;3.80;3.40;;;;;;;-141.28;100.00;52069.69;5072983;28;20204;-73
2022/10/03 12:45:54;;;;;;;7.23;3.00;;;;;;;-141.28;100.00;52069.69;5073552;28;20261;-74
2022/10/03 12:48:41;;;;;;;3.07;2.80;;;;;;;-141.28;100.00;51989.16;5073130;28;20207;-76
2022/10/03 12:51:19;;;;;;;2.70;2.50;;;;;;;-141.28;100.00;51881.16;5073053;28;20245;-74
2022/10/03 12:53:57;;;;;;;3.30;3.00;;;;;;;-141.28;100.00;51849.75;5073430;28;20766;-74
2022/10/03 12:56:35;;;;;;;3.30;3.00;;;;;;;-141.28;100.00;51684.81;5074234;28;20219;-74
2022/10/03 12:59:17;;;;;;;3.67;2.97;;;;;;;-141.28;100.00;51594.47;5073513;28;20196;-73
2022/10/03 13:04:49;;;;;;;11.30;4.30;;;;;;;-141.28;100.00;51531.66;5066920;27;1833546;-75
2022/10/03 13:07:27;;;;;;;3.47;3.13;;;;;;;-141.28;100.00;51480.59;5114554;28;20203;-73